createdAt,value
2022-09-09T00:02:14.044Z,12.95
2022-09-09T00:04:41.878Z,12.93
2022-09-09T00:07:18.987Z,12.92
2022-09-09T00:10:15.316Z,12.98
2022-09-09T00:12:49.896Z,12.99
2022-09-09T00:15:21.563Z,13.04
2022-09-09T00:18:00.653Z,13.06
2022-09-09T00:20:35.544Z,13.10
2022-09-09T00:23:25.551Z,13.13
2022-09-09T00:26:15.180Z,13.16
2022-09-09T00:28:54.336Z,13.21
2022-09-09T00:31:25.998Z,13.27
2022-09-09T00:33:54.048Z,13.31
2022-09-09T00:36:22.810Z,13.34
2022-09-09T00:38:51.825Z,13.31
2022-09-09T00:41:22.444Z,13.37
2022-09-09T00:44:03.646Z,13.39
2022-09-09T00:46:41.206Z,13.38
2022-09-09T00:49:26.948Z,13.37
2022-09-09T00:51:58.754Z,13.30
2022-09-09T00:54:31.508Z,13.33
2022-09-09T00:57:14.044Z,13.35
2022-09-09T00:59:48.437Z,13.37
2022-09-09T01:02:35.490Z,13.44
2022-09-09T01:05:08.179Z,13.47
2022-09-09T01:07:34.991Z,13.48
2022-09-09T01:10:04.327Z,13.46
2022-09-09T01:12:42.414Z,13.53
2022-09-09T01:15:13.346Z,13.56
2022-09-09T01:17:56.379Z,13.51
2022-09-09T01:20:29.232Z,13.51
2022-09-09T01:23:19.447Z,13.50
2022-09-09T01:26:16.972Z,13.50
2022-09-09T01:28:46.320Z,13.53
2022-09-09T01:31:18.440Z,13.52
2022-09-09T01:33:47.155Z,13.52
2022-09-09T01:36:25.874Z,13.46
2022-09-09T01:38:54.214Z,13.43
2022-09-09T01:41:21.495Z,13.34
2022-09-09T01:43:59.887Z,13.35
2022-09-09T01:46:28.835Z,13.32
2022-09-09T01:48:57.147Z,13.33
2022-09-09T01:51:24.604Z,13.32
2022-09-09T01:53:51.702Z,13.32
2022-09-09T01:56:18.551Z,13.31
2022-09-09T01:58:56.477Z,13.32
2022-09-09T02:01:26.529Z,13.29
2022-09-09T02:03:54.840Z,13.23
2022-09-09T02:06:24.722Z,13.18
2022-09-09T02:08:56.407Z,13.13
2022-09-09T02:11:25.340Z,13.06
2022-09-09T02:14:03.784Z,13.01
2022-09-09T02:16:38.741Z,12.94
2022-09-09T02:19:17.784Z,12.84
2022-09-09T02:22:01.262Z,12.74
2022-09-09T02:24:30.768Z,12.65
2022-09-09T02:27:11.916Z,12.56
2022-09-09T02:29:40.610Z,12.52
2022-09-09T02:32:09.831Z,12.49
2022-09-09T02:34:42.979Z,12.46
2022-09-09T02:37:10.541Z,12.38
2022-09-09T02:39:37.675Z,12.32
2022-09-09T02:42:06.315Z,12.27
2022-09-09T02:44:33.431Z,12.25
2022-09-09T02:47:17.663Z,12.22
2022-09-09T02:49:44.773Z,12.21
2022-09-09T02:52:15.785Z,12.19
2022-09-09T02:54:43.308Z,12.22
2022-09-09T02:57:11.960Z,12.21
2022-09-09T02:59:40.568Z,12.21
2022-09-09T03:02:07.450Z,12.15
2022-09-09T03:04:35.627Z,12.15
2022-09-09T03:07:02.495Z,12.12
2022-09-09T03:09:29.364Z,12.10
2022-09-09T03:11:57.223Z,12.08
2022-09-09T03:14:24.512Z,12.04
2022-09-09T03:16:52.417Z,12.03
2022-09-09T03:19:20.072Z,12.04
2022-09-09T03:21:47.209Z,12.03
2022-09-09T03:24:14.753Z,12.07
2022-09-09T03:26:42.077Z,12.12
2022-09-09T03:29:13.026Z,12.15
2022-09-09T03:31:41.498Z,12.21
2022-09-09T03:34:08.344Z,12.27
2022-09-09T03:36:36.433Z,12.32
2022-09-09T03:39:03.418Z,12.38
2022-09-09T03:41:31.555Z,12.38
2022-09-09T03:43:59.726Z,12.39
2022-09-09T03:46:28.229Z,12.42
2022-09-09T03:48:55.469Z,12.44
2022-09-09T03:51:22.248Z,12.47
2022-09-09T03:53:49.250Z,12.51
2022-09-09T03:56:16.184Z,12.54
2022-09-09T03:58:43.142Z,12.51
2022-09-09T04:01:14.749Z,12.55
2022-09-09T04:03:43.374Z,12.59
2022-09-09T04:06:10.758Z,12.60
2022-09-09T04:08:37.902Z,12.61
2022-09-09T04:11:05.005Z,12.59
2022-09-09T04:13:32.879Z,12.59
2022-09-09T04:16:00.167Z,12.57
2022-09-09T04:18:27.604Z,12.50
2022-09-09T04:20:55.029Z,12.46
2022-09-09T04:23:25.402Z,12.46
2022-09-09T04:25:53.405Z,12.45
2022-09-09T04:28:21.594Z,12.46
2022-09-09T04:30:48.563Z,12.43
2022-09-09T04:33:15.905Z,12.47
2022-09-09T04:35:46.771Z,12.46
2022-09-09T04:38:27.577Z,12.43
2022-09-09T04:40:55.899Z,12.41
2022-09-09T04:43:23.205Z,12.38
2022-09-09T04:45:51.756Z,12.28
2022-09-09T04:48:21.154Z,12.29
2022-09-09T04:50:56.403Z,12.21
2022-09-09T04:53:23.338Z,12.16
2022-09-09T04:55:50.194Z,12.13
2022-09-09T04:58:16.992Z,12.08
2022-09-09T05:00:43.860Z,12.07
2022-09-09T05:03:11.266Z,12.00
2022-09-09T05:05:38.169Z,11.98
2022-09-09T05:08:07.164Z,12.00
2022-09-09T05:10:34.478Z,12.05
2022-09-09T05:13:01.426Z,12.14
2022-09-09T05:15:30.610Z,12.22
2022-09-09T05:17:58.344Z,12.30
2022-09-09T05:20:25.361Z,12.40
2022-09-09T05:22:55.779Z,12.47
2022-09-09T05:25:24.066Z,12.56
2022-09-09T05:27:50.895Z,12.60
2022-09-09T05:30:17.760Z,12.63
2022-09-09T05:32:44.587Z,12.69
2022-09-09T05:35:13.161Z,12.77
2022-09-09T05:37:40.004Z,12.86
2022-09-09T05:40:07.400Z,13.03
2022-09-09T05:42:34.543Z,13.17
2022-09-09T05:45:01.551Z,13.35
2022-09-09T05:47:28.375Z,13.45
2022-09-09T05:49:56.738Z,13.50
2022-09-09T05:52:23.773Z,13.48
2022-09-09T05:54:50.743Z,13.46
2022-09-09T05:57:18.243Z,13.51
2022-09-09T05:59:45.091Z,13.61
2022-09-09T06:02:12.938Z,13.57
2022-09-09T06:04:39.897Z,13.65
2022-09-09T06:07:06.740Z,13.69
2022-09-09T06:09:34.632Z,13.74
2022-09-09T06:12:01.717Z,13.81
2022-09-09T06:14:31.224Z,13.91
2022-09-09T06:17:00.282Z,14.03
2022-09-09T06:19:30.168Z,14.10
2022-09-09T06:21:58.804Z,14.22
2022-09-09T06:24:28.311Z,14.24
2022-09-09T06:26:55.190Z,14.30
2022-09-09T06:29:26.983Z,14.29
2022-09-09T06:31:53.951Z,14.35
2022-09-09T06:34:23.010Z,14.39
2022-09-09T06:36:57.968Z,14.40
2022-09-09T06:39:24.928Z,14.47
2022-09-09T06:41:51.755Z,14.51
2022-09-09T06:44:37.092Z,14.56
2022-09-09T06:47:06.735Z,14.58
2022-09-09T06:49:34.278Z,14.62
2022-09-09T06:52:02.647Z,14.72
2022-09-09T06:54:30.150Z,14.76
2022-09-09T06:56:56.974Z,14.78
2022-09-09T06:59:25.315Z,14.87
2022-09-09T07:01:56.009Z,14.96
2022-09-09T07:04:23.608Z,15.08
2022-09-09T07:06:50.497Z,15.08
2022-09-09T07:09:22.060Z,15.19
2022-09-09T07:11:51.809Z,15.27
2022-09-09T07:14:20.070Z,15.32
2022-09-09T07:16:50.057Z,15.39
2022-09-09T07:19:17.931Z,15.52
2022-09-09T07:21:46.799Z,15.58
2022-09-09T07:24:17.053Z,15.75
2022-09-09T07:26:44.456Z,15.85
2022-09-09T07:29:13.757Z,15.98
2022-09-09T07:31:42.650Z,16.18
2022-09-09T07:34:14.149Z,16.45
2022-09-09T07:36:41.800Z,16.57
2022-09-09T07:39:10.763Z,16.78
2022-09-09T07:41:40.272Z,17.09
2022-09-09T07:44:09.701Z,17.40
2022-09-09T07:46:37.408Z,17.73
2022-09-09T07:49:04.259Z,17.83
2022-09-09T07:51:38.699Z,18.16
2022-09-09T07:54:07.798Z,18.20
2022-09-09T07:56:35.081Z,18.27
2022-09-09T07:59:02.201Z,18.44
2022-09-09T08:01:30.599Z,18.63
2022-09-09T08:03:59.328Z,18.79
2022-09-09T08:06:27.985Z,18.88
2022-09-09T08:08:54.951Z,18.92
2022-09-09T08:11:24.296Z,18.82
2022-09-09T08:13:54.072Z,18.66
2022-09-09T08:16:23.980Z,18.70
2022-09-09T08:18:51.769Z,18.80
2022-09-09T08:21:21.375Z,18.72
2022-09-09T08:23:48.803Z,18.58
2022-09-09T08:26:18.036Z,18.28
2022-09-09T08:28:44.992Z,18.37
2022-09-09T08:31:13.385Z,18.41
2022-09-09T08:33:41.797Z,18.35
2022-09-09T08:36:10.757Z,18.51
2022-09-09T08:38:38.300Z,18.56
2022-09-09T08:41:24.361Z,18.56
2022-09-09T08:43:52.353Z,18.78
2022-09-09T08:46:19.207Z,19.03
2022-09-09T08:48:52.898Z,19.22
2022-09-09T08:51:19.884Z,19.38
2022-09-09T08:53:54.475Z,19.55
2022-09-09T08:56:26.172Z,19.47
2022-09-09T08:58:56.889Z,19.34
2022-09-09T09:01:51.939Z,19.36
2022-09-09T09:04:47.177Z,19.17
2022-09-09T09:07:37.014Z,19.18
2022-09-09T09:10:18.929Z,19.42
2022-09-09T09:12:53.996Z,19.70
2022-09-09T09:15:25.715Z,19.66
2022-09-09T09:17:55.810Z,19.92
2022-09-09T09:20:30.507Z,20.04
2022-09-09T09:23:00.161Z,19.97
2022-09-09T09:25:35.062Z,20.11
2022-09-09T09:28:04.780Z,20.49
2022-09-09T09:30:40.639Z,20.80
2022-09-09T09:33:18.573Z,21.04
2022-09-09T09:35:45.359Z,20.89
2022-09-09T09:41:07.001Z,20.59
2022-09-09T09:43:34.930Z,20.66
2022-09-09T09:46:17.757Z,20.58
2022-09-09T09:48:46.148Z,20.61
2022-09-09T09:51:15.271Z,20.59
2022-09-09T09:53:42.904Z,20.80
2022-09-09T09:56:13.654Z,21.01
2022-09-09T09:58:47.123Z,21.25
2022-09-09T10:01:29.709Z,21.37
2022-09-09T10:03:59.808Z,21.34
2022-09-09T10:06:30.941Z,21.51
2022-09-09T10:08:57.728Z,21.37
2022-09-09T10:11:29.336Z,21.51
2022-09-09T10:14:14.724Z,22.05
2022-09-09T10:17:00.299Z,21.85
2022-09-09T10:19:34.532Z,22.15
2022-09-09T10:22:04.344Z,21.50
2022-09-09T10:24:45.452Z,21.61
2022-09-09T10:27:31.271Z,21.47
2022-09-09T10:30:10.074Z,21.60
2022-09-09T10:32:38.937Z,21.81
2022-09-09T10:35:05.700Z,21.68
2022-09-09T10:37:38.669Z,21.79
2022-09-09T10:40:16.972Z,21.70
2022-09-09T10:42:43.990Z,21.67
2022-09-09T10:45:16.712Z,21.86
2022-09-09T10:47:50.807Z,22.05
2022-09-09T10:50:20.482Z,22.25
2022-09-09T10:52:53.260Z,22.52
2022-09-09T10:55:30.000Z,22.82
2022-09-09T10:57:59.196Z,22.85
2022-09-09T11:00:39.793Z,22.89
2022-09-09T11:03:07.456Z,22.93
2022-09-09T11:05:42.504Z,22.70
2022-09-09T11:08:29.696Z,22.15
2022-09-09T11:11:11.519Z,22.01
2022-09-09T11:13:56.897Z,22.10
2022-09-09T11:16:26.765Z,22.69
2022-09-09T11:18:59.000Z,22.83
2022-09-09T11:21:28.960Z,22.85
2022-09-09T11:23:58.257Z,23.22
2022-09-09T11:26:34.214Z,23.36
2022-09-09T11:29:20.006Z,23.47
2022-09-09T11:31:52.987Z,23.28
2022-09-09T11:34:22.591Z,23.36
2022-09-09T11:36:52.354Z,23.02
2022-09-09T11:39:22.262Z,22.91
2022-09-09T11:41:49.068Z,22.49
2022-09-09T11:44:27.097Z,22.44
2022-09-09T11:46:53.922Z,22.25
2022-09-09T11:49:28.483Z,22.08
2022-09-09T11:51:55.420Z,21.91
2022-09-09T11:54:30.141Z,22.02
2022-09-09T11:56:57.237Z,21.90
2022-09-09T11:59:26.776Z,21.72
2022-09-09T12:02:12.456Z,21.38
2022-09-09T12:04:41.573Z,21.12
2022-09-09T12:07:11.474Z,20.78
2022-09-09T12:09:50.919Z,20.01
2022-09-09T12:12:25.995Z,20.01
2022-09-09T12:14:57.508Z,20.02
2022-09-09T12:17:25.727Z,20.31
2022-09-09T12:20:22.154Z,20.24
2022-09-09T12:23:00.820Z,20.30
2022-09-09T12:25:34.381Z,20.75
2022-09-09T12:28:16.186Z,20.58
2022-09-09T12:31:05.504Z,20.49
2022-09-09T12:33:36.350Z,21.13
2022-09-09T12:36:05.415Z,21.41
2022-09-09T12:38:36.288Z,21.47
2022-09-09T12:41:03.043Z,21.49
2022-09-09T12:43:30.231Z,21.69
2022-09-09T12:45:59.671Z,21.68
2022-09-09T12:48:32.106Z,21.80
2022-09-09T12:50:59.240Z,21.83
2022-09-09T12:53:29.742Z,21.61
2022-09-09T12:55:58.138Z,21.52
2022-09-09T12:58:25.415Z,21.57
2022-09-09T13:00:53.385Z,22.01
2022-09-09T13:03:21.213Z,21.97
2022-09-09T13:05:48.135Z,22.10
2022-09-09T13:08:15.681Z,21.91
2022-09-09T13:10:53.613Z,22.13
2022-09-09T13:13:23.722Z,22.14
2022-09-09T13:15:55.002Z,21.93
2022-09-09T13:18:23.477Z,22.08
2022-09-09T13:20:50.739Z,21.77
2022-09-09T13:23:19.007Z,21.73
2022-09-09T13:25:56.701Z,21.88
2022-09-09T13:28:25.150Z,21.87
2022-09-09T13:31:02.922Z,21.56
2022-09-09T13:33:34.571Z,21.49
2022-09-09T13:36:06.102Z,21.41
2022-09-09T13:38:41.996Z,21.37
2022-09-09T13:41:11.232Z,21.26
2022-09-09T13:43:42.510Z,20.94
2022-09-09T13:46:27.855Z,20.91
2022-09-09T13:48:58.606Z,20.62
2022-09-09T13:51:34.983Z,20.63
2022-09-09T13:54:02.765Z,20.13
2022-09-09T13:56:29.557Z,19.52
2022-09-09T13:58:56.344Z,19.23
2022-09-09T14:01:26.377Z,19.00
2022-09-09T14:03:56.438Z,17.76
2022-09-09T14:06:23.324Z,18.06
2022-09-09T14:08:50.858Z,18.16
2022-09-09T14:11:18.587Z,18.11
2022-09-09T14:13:45.404Z,18.08
2022-09-09T14:16:12.218Z,18.19
2022-09-09T14:18:39.076Z,18.13
2022-09-09T14:21:06.001Z,18.12
2022-09-09T14:23:32.793Z,18.24
2022-09-09T14:25:59.548Z,18.56
2022-09-09T14:28:51.908Z,19.02
2022-09-09T14:31:13.785Z,19.43
2022-09-09T14:33:41.368Z,19.84
2022-09-09T14:36:08.203Z,20.11
2022-09-09T14:38:36.544Z,20.23
2022-09-09T14:41:03.445Z,19.81
2022-09-09T14:43:30.356Z,20.05
2022-09-09T14:45:57.136Z,20.24
2022-09-09T14:48:23.960Z,20.48
2022-09-09T14:50:50.798Z,20.61
2022-09-09T14:53:17.597Z,20.54
2022-09-09T14:55:44.471Z,20.66
2022-09-09T14:58:11.285Z,20.35
2022-09-09T15:00:39.075Z,20.19
2022-09-09T15:03:05.939Z,20.18
2022-09-09T15:05:32.761Z,20.14
2022-09-09T15:07:59.541Z,19.72
2022-09-09T15:10:26.340Z,19.64
2022-09-09T15:12:53.137Z,19.79
2022-09-09T15:15:19.899Z,19.49
2022-09-09T15:17:46.685Z,19.52
2022-09-09T15:20:13.492Z,19.38
2022-09-09T15:22:41.797Z,19.38
2022-09-09T15:25:08.669Z,19.31
2022-09-09T15:27:35.513Z,19.44
2022-09-09T15:30:02.300Z,19.60
2022-09-09T15:32:29.107Z,19.62
2022-09-09T15:34:55.937Z,19.66
2022-09-09T15:37:22.733Z,19.49
2022-09-09T15:39:49.571Z,19.38
2022-09-09T15:42:16.396Z,19.34
2022-09-09T15:44:43.579Z,19.10
2022-09-09T15:47:13.423Z,18.92
2022-09-09T15:49:40.202Z,18.52
2022-09-09T15:52:07.011Z,18.30
2022-09-09T15:54:36.800Z,18.23
2022-09-09T15:57:04.254Z,18.20
2022-09-09T15:59:32.178Z,17.97
2022-09-09T16:01:59.168Z,17.88
2022-09-09T16:04:26.538Z,17.68
2022-09-09T16:06:54.825Z,17.75
2022-09-09T16:09:22.133Z,17.66
2022-09-09T16:11:48.933Z,17.42
2022-09-09T16:14:16.420Z,17.21
2022-09-09T16:16:43.416Z,17.30
2022-09-09T16:19:11.719Z,17.35
2022-09-09T16:21:40.347Z,17.28
2022-09-09T16:24:08.246Z,17.26
2022-09-09T16:26:36.300Z,17.27
2022-09-09T16:29:03.663Z,17.12
2022-09-09T16:31:30.995Z,17.22
2022-09-09T16:33:57.780Z,17.19
2022-09-09T16:36:25.827Z,17.14
2022-09-09T16:38:53.420Z,17.03
2022-09-09T16:41:20.209Z,17.01
2022-09-09T16:43:46.966Z,16.88
2022-09-09T16:46:18.328Z,16.81
2022-09-09T16:48:46.042Z,16.73
2022-09-09T16:51:14.777Z,16.61
2022-09-09T16:53:42.181Z,16.51
2022-09-09T16:56:09.809Z,16.59
2022-09-09T16:58:36.700Z,16.56
2022-09-09T17:01:04.151Z,16.49
2022-09-09T17:03:31.460Z,16.22
2022-09-09T17:05:58.521Z,16.24
2022-09-09T17:08:25.390Z,16.02
2022-09-09T17:10:52.193Z,15.98
2022-09-09T17:13:18.973Z,15.89
2022-09-09T17:15:46.061Z,15.76
2022-09-09T17:18:13.535Z,15.67
2022-09-09T17:20:47.008Z,15.62
2022-09-09T17:23:14.241Z,15.51
2022-09-09T17:25:41.036Z,15.36
2022-09-09T17:28:07.851Z,15.16
2022-09-09T17:30:35.828Z,14.99
2022-09-09T17:33:03.042Z,14.81
2022-09-09T17:35:30.581Z,14.71
2022-09-09T17:37:57.378Z,14.66
2022-09-09T17:40:24.394Z,14.59
2022-09-09T17:42:51.218Z,14.58
2022-09-09T17:45:17.988Z,14.51
2022-09-09T17:47:44.772Z,14.44
2022-09-09T17:50:11.580Z,14.40
2022-09-09T17:52:38.361Z,14.37
2022-09-09T17:55:05.834Z,14.35
2022-09-09T17:57:32.603Z,14.32
2022-09-09T17:59:59.362Z,14.36
2022-09-09T18:02:26.242Z,14.36
2022-09-09T18:04:53.087Z,14.39
2022-09-09T18:07:19.900Z,14.40
2022-09-09T18:09:46.680Z,14.43
2022-09-09T18:12:13.449Z,14.40
2022-09-09T18:14:40.229Z,14.36
2022-09-09T18:17:07.105Z,14.35
2022-09-09T18:19:33.869Z,14.33
2022-09-09T18:22:02.677Z,14.27
2022-09-09T18:24:30.276Z,14.26
2022-09-09T18:26:57.274Z,14.26
2022-09-09T18:29:24.709Z,14.26
2022-09-09T18:31:53.212Z,14.22
2022-09-09T18:34:21.127Z,14.23
2022-09-09T18:36:49.278Z,14.22
2022-09-09T18:39:17.302Z,14.23
2022-09-09T18:41:45.580Z,14.23
2022-09-09T18:44:20.239Z,14.21
2022-09-09T18:46:48.038Z,14.16
2022-09-09T18:49:15.093Z,14.14
2022-09-09T18:51:45.212Z,14.12
2022-09-09T18:54:17.135Z,14.08
2022-09-09T18:56:44.423Z,14.11
2022-09-09T18:59:28.014Z,14.14
2022-09-09T19:01:54.968Z,14.14
2022-09-09T19:04:22.751Z,14.12
2022-09-09T19:06:49.878Z,14.17
2022-09-09T19:09:17.584Z,14.21
2022-09-09T19:11:45.087Z,14.21
2022-09-09T19:14:14.268Z,14.18
2022-09-09T19:16:41.553Z,14.18
2022-09-09T19:19:11.197Z,14.20
2022-09-09T19:21:38.381Z,14.22
2022-09-09T19:24:11.107Z,14.24
2022-09-09T19:26:39.232Z,14.28
2022-09-09T19:29:07.361Z,14.28
2022-09-09T19:31:34.145Z,14.30
2022-09-09T19:34:00.950Z,14.36
2022-09-09T19:36:27.826Z,14.37
2022-09-09T19:38:55.138Z,14.37
2022-09-09T19:41:23.046Z,14.42
2022-09-09T19:43:50.440Z,14.43
2022-09-09T19:46:17.533Z,14.44
2022-09-09T19:48:45.315Z,14.43
2022-09-09T19:51:19.528Z,14.44
2022-09-09T19:53:47.560Z,14.42
2022-09-09T19:56:15.389Z,14.40
2022-09-09T19:58:42.195Z,14.40
2022-09-09T20:01:13.793Z,14.36
2022-09-09T20:03:41.570Z,14.39
2022-09-09T20:06:09.613Z,14.37
2022-09-09T20:08:37.190Z,14.39
2022-09-09T20:11:04.381Z,14.38
2022-09-09T20:13:32.989Z,14.41
2022-09-09T20:16:00.828Z,14.42
2022-09-09T20:18:28.988Z,14.38
2022-09-09T20:21:03.175Z,14.41
2022-09-09T20:23:30.341Z,14.42
2022-09-09T20:26:01.128Z,14.46
2022-09-09T20:28:27.954Z,14.43
2022-09-09T20:30:54.940Z,14.48
2022-09-09T20:33:21.862Z,14.42
2022-09-09T20:35:48.739Z,14.41
2022-09-09T20:38:15.546Z,14.41
2022-09-09T20:40:42.315Z,14.37
2022-09-09T20:43:10.943Z,14.40
2022-09-09T20:45:37.796Z,14.43
2022-09-09T20:48:05.062Z,14.39
2022-09-09T20:50:31.821Z,14.38
2022-09-09T20:52:58.627Z,14.35
2022-09-09T20:55:25.430Z,14.36
2022-09-09T20:57:52.186Z,14.28
2022-09-09T21:00:19.098Z,14.26
2022-09-09T21:02:46.047Z,14.24
2022-09-09T21:05:13.090Z,14.24
2022-09-09T21:07:39.865Z,14.27
2022-09-09T21:10:06.851Z,14.27
2022-09-09T21:12:33.614Z,14.24
2022-09-09T21:15:00.395Z,14.23
2022-09-09T21:17:27.190Z,14.19
2022-09-09T21:19:57.198Z,14.17
2022-09-09T21:22:24.279Z,14.16
2022-09-09T21:24:51.153Z,14.18
2022-09-09T21:27:17.941Z,14.18
2022-09-09T21:29:44.799Z,14.21
2022-09-09T21:32:11.570Z,14.26
2022-09-09T21:34:38.340Z,14.27
2022-09-09T21:37:05.126Z,14.31
2022-09-09T21:39:31.958Z,14.35
2022-09-09T21:41:58.789Z,14.37
2022-09-09T21:44:25.577Z,14.37
2022-09-09T21:46:52.351Z,14.41
2022-09-09T21:49:19.128Z,14.43
2022-09-09T21:51:45.944Z,14.46
2022-09-09T21:54:12.746Z,14.43
2022-09-09T21:56:39.543Z,14.42
2022-09-09T21:59:06.373Z,14.39
2022-09-09T22:01:33.361Z,14.38
2022-09-09T22:04:00.617Z,14.39
2022-09-09T22:06:27.480Z,14.36
2022-09-09T22:08:55.273Z,14.31
2022-09-09T22:11:22.449Z,14.23
2022-09-09T22:13:49.655Z,14.14
2022-09-09T22:16:17.548Z,14.06
2022-09-09T22:18:44.735Z,14.01
2022-09-09T22:21:13.024Z,13.98
2022-09-09T22:23:39.875Z,13.95
2022-09-09T22:26:07.796Z,13.96
2022-09-09T22:28:35.307Z,13.95
2022-09-09T22:31:03.241Z,13.95
2022-09-09T22:33:31.072Z,13.98
2022-09-09T22:35:58.025Z,14.01
2022-09-09T22:38:25.863Z,14.02
2022-09-09T22:40:52.661Z,13.96
2022-09-09T22:43:20.771Z,13.98
2022-09-09T22:45:47.721Z,14.02
2022-09-09T22:48:15.112Z,14.05
2022-09-09T22:50:42.714Z,14.08
2022-09-09T22:53:12.564Z,14.10
2022-09-09T22:55:39.432Z,14.14
2022-09-09T22:58:06.255Z,14.15
2022-09-09T23:00:33.011Z,14.14
2022-09-09T23:02:59.920Z,14.12
2022-09-09T23:05:26.772Z,14.11
2022-09-09T23:07:53.884Z,14.10
2022-09-09T23:10:20.643Z,14.12
2022-09-09T23:12:48.417Z,14.11
2022-09-09T23:15:15.215Z,14.10
2022-09-09T23:17:42.008Z,14.10
2022-09-09T23:20:09.356Z,14.06
2022-09-09T23:22:36.634Z,14.06
2022-09-09T23:25:04.021Z,14.07
2022-09-09T23:27:30.829Z,14.07
2022-09-09T23:29:57.656Z,14.07
2022-09-09T23:32:24.447Z,14.03
2022-09-09T23:34:51.219Z,13.99
2022-09-09T23:37:18.055Z,13.97
2022-09-09T23:39:45.147Z,13.92
2022-09-09T23:42:12.168Z,13.93
2022-09-09T23:44:38.984Z,13.93
2022-09-09T23:47:06.638Z,13.92
2022-09-09T23:49:34.187Z,13.93
2022-09-09T23:52:01.708Z,13.89
2022-09-09T23:54:28.563Z,13.89
2022-09-09T23:56:55.365Z,13.88
2022-09-09T23:59:22.249Z,13.85
